EXS1AX EGCC-ENBR
Flight info
| Callsign | EXS1AX |
|---|---|
| Flight time | 1h 28m |
| Altitude | 37000 |
| Route | POL N601 ERGAB DCT KLONN DCT ALUVA |
| Aircraft | A321/M-SDE3FGHIRWY/LB1 |
Departure
| Time | 2026-05-06 18:31 |
|---|---|
| Airport | Manchester Airport (EGCC) |
Arrival
| Time | 2026-05-06 19:59 |
|---|---|
| Airport | Bergen Airport, Flesland (ENBR) |
| Time | Latitude | Longitude | Altitude | Speed | Heading |
|---|---|---|---|---|---|
| 2026-05-06 17:57 | 53.36200 | -2.27883 | 255 ft | 0 kts | 41° |
| 2026-05-06 18:21 | 53.36195 | -2.27890 | 255 ft | 4 kts | 43° |
| 2026-05-06 18:21 | 53.36177 | -2.27924 | 255 ft | 4 kts | 59° |
| 2026-05-06 18:21 | 53.36167 | -2.27964 | 255 ft | 4 kts | 91° |
| 2026-05-06 18:22 | 53.36174 | -2.27996 | 255 ft | 1 kts | 141° |
| 2026-05-06 18:22 | 53.36177 | -2.28002 | 255 ft | 0 kts | 141° |
| 2026-05-06 18:26 | 53.36134 | -2.27944 | 255 ft | 18 kts | 141° |
| 2026-05-06 18:26 | 53.36030 | -2.27812 | 255 ft | 17 kts | 144° |
| 2026-05-06 18:26 | 53.35929 | -2.27723 | 255 ft | 16 kts | 167° |
| 2026-05-06 18:27 | 53.35822 | -2.27735 | 252 ft | 17 kts | 186° |
| 2026-05-06 18:27 | 53.35696 | -2.27765 | 245 ft | 18 kts | 205° |
| 2026-05-06 18:27 | 53.35613 | -2.27925 | 240 ft | 18 kts | 232° |
| 2026-05-06 18:27 | 53.35528 | -2.28089 | 237 ft | 19 kts | 215° |
| 2026-05-06 18:28 | 53.35419 | -2.28156 | 236 ft | 15 kts | 194° |
| 2026-05-06 18:28 | 53.35314 | -2.28198 | 235 ft | 16 kts | 200° |
| 2026-05-06 18:28 | 53.35227 | -2.28314 | 233 ft | 16 kts | 230° |
| 2026-05-06 18:28 | 53.35154 | -2.28462 | 227 ft | 18 kts | 231° |
| 2026-05-06 18:29 | 53.35082 | -2.28613 | 229 ft | 15 kts | 231° |
| 2026-05-06 18:29 | 53.35015 | -2.28740 | 227 ft | 15 kts | 226° |
| 2026-05-06 18:29 | 53.34944 | -2.28865 | 226 ft | 14 kts | 227° |
| 2026-05-06 18:29 | 53.34870 | -2.28996 | 220 ft | 17 kts | 226° |
| 2026-05-06 18:30 | 53.34763 | -2.29069 | 220 ft | 17 kts | 176° |
| 2026-05-06 18:30 | 53.34674 | -2.28997 | 218 ft | 7 kts | 139° |
| 2026-05-06 18:30 | 53.34678 | -2.28939 | 224 ft | 10 kts | 59° |
| 2026-05-06 18:30 | 53.34874 | -2.28532 | 232 ft | 79 kts | 51° |
| 2026-05-06 18:31 | 53.35344 | -2.27554 | 243 ft | 133 kts | 52° |
| 2026-05-06 18:31 | 53.36017 | -2.26178 | 352 ft | 167 kts | 51° |
| 2026-05-06 18:31 | 53.36739 | -2.24719 | 1029 ft | 159 kts | 52° |
| 2026-05-06 18:31 | 53.37436 | -2.23301 | 1741 ft | 158 kts | 53° |
| 2026-05-06 18:32 | 53.38132 | -2.21868 | 2344 ft | 159 kts | 53° |
| 2026-05-06 18:32 | 53.38841 | -2.20342 | 2694 ft | 176 kts | 56° |
| 2026-05-06 18:32 | 53.39620 | -2.18598 | 2873 ft | 198 kts | 55° |
| 2026-05-06 18:32 | 53.40486 | -2.16661 | 3018 ft | 219 kts | 54° |
| 2026-05-06 18:33 | 53.41459 | -2.14506 | 3200 ft | 244 kts | 54° |
| 2026-05-06 18:33 | 53.42517 | -2.12183 | 3803 ft | 254 kts | 53° |
| 2026-05-06 18:33 | 53.43764 | -2.10042 | 4522 ft | 262 kts | 30° |
| 2026-05-06 18:33 | 53.45520 | -2.09231 | 4946 ft | 266 kts | 358° |
| 2026-05-06 18:34 | 53.47349 | -2.09590 | 5005 ft | 265 kts | 352° |
| 2026-05-06 18:34 | 53.49189 | -2.09968 | 5280 ft | 267 kts | 352° |
| 2026-05-06 18:34 | 53.51034 | -2.10275 | 6197 ft | 267 kts | 357° |
| 2026-05-06 18:34 | 53.52896 | -2.10224 | 7039 ft | 269 kts | 1° |
| 2026-05-06 18:35 | 53.54771 | -2.09999 | 7787 ft | 272 kts | 1° |
| 2026-05-06 18:35 | 53.56669 | -2.09873 | 8519 ft | 275 kts | 359° |
| 2026-05-06 18:35 | 53.58592 | -2.09855 | 9233 ft | 278 kts | 358° |
| 2026-05-06 18:35 | 53.60537 | -2.09893 | 9958 ft | 281 kts | 357° |
| 2026-05-06 18:36 | 53.62537 | -2.09957 | 10343 ft | 297 kts | 357° |
| 2026-05-06 18:36 | 53.64677 | -2.10034 | 10475 ft | 319 kts | 357° |
| 2026-05-06 18:36 | 53.66957 | -2.10114 | 10765 ft | 334 kts | 357° |
| 2026-05-06 18:36 | 53.69301 | -2.10188 | 11352 ft | 339 kts | 357° |
| 2026-05-06 18:37 | 53.71670 | -2.10259 | 12008 ft | 343 kts | 357° |
| 2026-05-06 18:37 | 53.74055 | -2.10576 | 12642 ft | 345 kts | 348° |
| 2026-05-06 18:37 | 53.76370 | -2.11665 | 13284 ft | 346 kts | 337° |
| 2026-05-06 18:37 | 53.78580 | -2.13169 | 13917 ft | 349 kts | 336° |
| 2026-05-06 18:38 | 53.80841 | -2.14716 | 14510 ft | 352 kts | 336° |
| 2026-05-06 18:38 | 53.83124 | -2.16278 | 15110 ft | 355 kts | 336° |
| 2026-05-06 18:38 | 53.85425 | -2.17851 | 15680 ft | 358 kts | 336° |
| 2026-05-06 18:38 | 53.87747 | -2.19438 | 16252 ft | 362 kts | 336° |
| 2026-05-06 18:39 | 53.90089 | -2.21042 | 16804 ft | 365 kts | 336° |
| 2026-05-06 18:39 | 53.92456 | -2.22663 | 17374 ft | 368 kts | 336° |
| 2026-05-06 18:39 | 53.94836 | -2.24297 | 17928 ft | 371 kts | 336° |
| 2026-05-06 18:40 | 53.99663 | -2.27623 | 18946 ft | 377 kts | 335° |
| 2026-05-06 18:40 | 54.02102 | -2.29304 | 19434 ft | 379 kts | 335° |
| 2026-05-06 18:40 | 54.04551 | -2.30994 | 19903 ft | 382 kts | 335° |
| 2026-05-06 18:40 | 54.07016 | -2.32702 | 20363 ft | 384 kts | 335° |
| 2026-05-06 18:41 | 54.09500 | -2.34425 | 20835 ft | 386 kts | 336° |
| 2026-05-06 18:41 | 54.12085 | -2.35738 | 21293 ft | 391 kts | 348° |
| 2026-05-06 18:41 | 54.14817 | -2.36074 | 21746 ft | 397 kts | 0° |
| 2026-05-06 18:41 | 54.17568 | -2.35374 | 22193 ft | 403 kts | 13° |
| 2026-05-06 18:42 | 54.20196 | -2.33643 | 22626 ft | 409 kts | 26° |
| 2026-05-06 18:42 | 54.22636 | -2.31106 | 23081 ft | 412 kts | 30° |
| 2026-05-06 18:42 | 54.25067 | -2.28472 | 23514 ft | 415 kts | 30° |
| 2026-05-06 18:42 | 54.27516 | -2.25822 | 23874 ft | 418 kts | 30° |
| 2026-05-06 18:43 | 54.29974 | -2.23162 | 24256 ft | 419 kts | 30° |
| 2026-05-06 18:43 | 54.32444 | -2.20482 | 24633 ft | 421 kts | 30° |
| 2026-05-06 18:43 | 54.34925 | -2.17784 | 25011 ft | 423 kts | 30° |
| 2026-05-06 18:43 | 54.37376 | -2.15112 | 25373 ft | 424 kts | 30° |
| 2026-05-06 18:44 | 54.39870 | -2.12390 | 25756 ft | 426 kts | 30° |
| 2026-05-06 18:44 | 54.42407 | -2.09619 | 26116 ft | 427 kts | 30° |
| 2026-05-06 18:44 | 54.44884 | -2.06909 | 26473 ft | 429 kts | 30° |
| 2026-05-06 18:44 | 54.47406 | -2.04145 | 26823 ft | 431 kts | 30° |
| 2026-05-06 18:45 | 54.49936 | -2.01359 | 27170 ft | 433 kts | 30° |
| 2026-05-06 18:45 | 54.52478 | -1.98557 | 27494 ft | 435 kts | 30° |
| 2026-05-06 18:45 | 54.55029 | -1.95751 | 27838 ft | 436 kts | 29° |
| 2026-05-06 18:45 | 54.57591 | -1.92932 | 28178 ft | 438 kts | 29° |
| 2026-05-06 18:46 | 54.60164 | -1.90096 | 28507 ft | 440 kts | 29° |
| 2026-05-06 18:46 | 54.62745 | -1.87246 | 28827 ft | 441 kts | 29° |
| 2026-05-06 18:46 | 54.65336 | -1.84381 | 29119 ft | 443 kts | 29° |
| 2026-05-06 18:46 | 54.67932 | -1.81508 | 29427 ft | 444 kts | 29° |
| 2026-05-06 18:47 | 54.70536 | -1.78617 | 29734 ft | 446 kts | 29° |
| 2026-05-06 18:47 | 54.73147 | -1.75710 | 30026 ft | 448 kts | 29° |
| 2026-05-06 18:47 | 54.75772 | -1.72782 | 30284 ft | 450 kts | 29° |
| 2026-05-06 18:47 | 54.78401 | -1.69842 | 30583 ft | 449 kts | 29° |
| 2026-05-06 18:48 | 54.81020 | -1.66907 | 30981 ft | 447 kts | 29° |
| 2026-05-06 18:48 | 54.83631 | -1.63978 | 31371 ft | 445 kts | 29° |
| 2026-05-06 18:48 | 54.86228 | -1.61065 | 31752 ft | 444 kts | 29° |
| 2026-05-06 18:48 | 54.88819 | -1.58151 | 32071 ft | 444 kts | 29° |
| 2026-05-06 18:49 | 54.91414 | -1.55228 | 32428 ft | 443 kts | 29° |
| 2026-05-06 18:49 | 54.93999 | -1.52314 | 32799 ft | 442 kts | 29° |
| 2026-05-06 18:49 | 54.96576 | -1.49409 | 33157 ft | 441 kts | 29° |
| 2026-05-06 18:49 | 54.99144 | -1.46509 | 33531 ft | 440 kts | 29° |
| 2026-05-06 18:50 | 55.01704 | -1.43611 | 33909 ft | 438 kts | 29° |
| 2026-05-06 18:50 | 55.04255 | -1.40725 | 34234 ft | 437 kts | 29° |
| 2026-05-06 18:50 | 55.06805 | -1.37835 | 34470 ft | 437 kts | 29° |
| 2026-05-06 18:50 | 55.09354 | -1.34938 | 34670 ft | 438 kts | 29° |
| 2026-05-06 18:51 | 55.11915 | -1.32023 | 34867 ft | 439 kts | 29° |
| 2026-05-06 18:51 | 55.14473 | -1.29106 | 35057 ft | 440 kts | 29° |
| 2026-05-06 18:51 | 55.17042 | -1.26176 | 35252 ft | 441 kts | 29° |
| 2026-05-06 18:51 | 55.19561 | -1.23299 | 35431 ft | 442 kts | 29° |
| 2026-05-06 18:52 | 55.22105 | -1.20384 | 35616 ft | 443 kts | 29° |
| 2026-05-06 18:52 | 55.24684 | -1.17421 | 35796 ft | 444 kts | 29° |
| 2026-05-06 18:52 | 55.27235 | -1.14486 | 35989 ft | 445 kts | 29° |
| 2026-05-06 18:52 | 55.29771 | -1.11562 | 36144 ft | 446 kts | 29° |
| 2026-05-06 18:53 | 55.32354 | -1.08580 | 36302 ft | 447 kts | 29° |
| 2026-05-06 18:53 | 55.34961 | -1.05570 | 36432 ft | 449 kts | 29° |
| 2026-05-06 18:53 | 55.37569 | -1.02557 | 36559 ft | 450 kts | 29° |
| 2026-05-06 18:53 | 55.40191 | -0.99524 | 36697 ft | 451 kts | 30° |
| 2026-05-06 18:54 | 55.42819 | -0.96475 | 36823 ft | 453 kts | 30° |
| 2026-05-06 18:54 | 55.45448 | -0.93419 | 36998 ft | 453 kts | 30° |
| 2026-05-06 18:54 | 55.48075 | -0.90360 | 37071 ft | 454 kts | 30° |
| 2026-05-06 18:55 | 55.53339 | -0.84204 | 37087 ft | 454 kts | 30° |
| 2026-05-06 18:55 | 55.58574 | -0.78074 | 37076 ft | 455 kts | 30° |
| 2026-05-06 18:56 | 55.63886 | -0.71852 | 37076 ft | 455 kts | 30° |
| 2026-05-06 18:56 | 55.69120 | -0.65683 | 37076 ft | 455 kts | 30° |
| 2026-05-06 18:57 | 55.74419 | -0.59411 | 37080 ft | 455 kts | 30° |
| 2026-05-06 18:57 | 55.79684 | -0.53155 | 37101 ft | 455 kts | 30° |
| 2026-05-06 18:58 | 55.84922 | -0.46932 | 37090 ft | 456 kts | 30° |
| 2026-05-06 18:58 | 55.90197 | -0.40640 | 37087 ft | 457 kts | 30° |
| 2026-05-06 18:59 | 55.95468 | -0.34309 | 37086 ft | 457 kts | 30° |
| 2026-05-06 18:59 | 56.00742 | -0.27962 | 37087 ft | 457 kts | 30° |
| 2026-05-06 19:00 | 56.06016 | -0.21620 | 37088 ft | 457 kts | 30° |
| 2026-05-06 19:00 | 56.11288 | -0.15239 | 37090 ft | 457 kts | 30° |
| 2026-05-06 19:01 | 56.16556 | -0.08840 | 37091 ft | 457 kts | 30° |
| 2026-05-06 19:01 | 56.21818 | -0.02419 | 37091 ft | 457 kts | 30° |
| 2026-05-06 19:02 | 56.27081 | 0.04030 | 37092 ft | 458 kts | 30° |
| 2026-05-06 19:02 | 56.32348 | 0.10493 | 37103 ft | 458 kts | 30° |
| 2026-05-06 19:03 | 56.37622 | 0.16978 | 37094 ft | 459 kts | 30° |
| 2026-05-06 19:03 | 56.42901 | 0.23492 | 37089 ft | 460 kts | 30° |
| 2026-05-06 19:04 | 56.48180 | 0.30029 | 37087 ft | 460 kts | 30° |
| 2026-05-06 19:04 | 56.53461 | 0.36591 | 37087 ft | 460 kts | 30° |
| 2026-05-06 19:05 | 56.58737 | 0.43188 | 37110 ft | 461 kts | 30° |
| 2026-05-06 19:05 | 56.64019 | 0.49800 | 37098 ft | 461 kts | 30° |
| 2026-05-06 19:06 | 56.69306 | 0.56431 | 37095 ft | 462 kts | 30° |
| 2026-05-06 19:06 | 56.74576 | 0.63074 | 37095 ft | 462 kts | 30° |
| 2026-05-06 19:07 | 56.79881 | 0.69785 | 37084 ft | 463 kts | 30° |
| 2026-05-06 19:07 | 56.85173 | 0.76513 | 37109 ft | 464 kts | 31° |
| 2026-05-06 19:08 | 56.90466 | 0.83266 | 37089 ft | 464 kts | 31° |
| 2026-05-06 19:08 | 56.95764 | 0.90052 | 37087 ft | 465 kts | 31° |
| 2026-05-06 19:09 | 57.01066 | 0.96862 | 37093 ft | 465 kts | 31° |
| 2026-05-06 19:09 | 57.06369 | 1.03697 | 37094 ft | 466 kts | 31° |
| 2026-05-06 19:10 | 57.10782 | 1.09385 | 37142 ft | 466 kts | 31° |
| 2026-05-06 19:10 | 57.16085 | 1.16254 | 37105 ft | 467 kts | 31° |
| 2026-05-06 19:11 | 57.21396 | 1.23161 | 37098 ft | 467 kts | 31° |
| 2026-05-06 19:11 | 57.26704 | 1.30102 | 37095 ft | 468 kts | 31° |
| 2026-05-06 19:12 | 57.32014 | 1.37074 | 37095 ft | 468 kts | 31° |
| 2026-05-06 19:12 | 57.37332 | 1.44060 | 37121 ft | 469 kts | 31° |
| 2026-05-06 19:13 | 57.42647 | 1.51066 | 37110 ft | 469 kts | 31° |
| 2026-05-06 19:13 | 57.47967 | 1.58108 | 37103 ft | 470 kts | 31° |
| 2026-05-06 19:14 | 57.53287 | 1.65175 | 37101 ft | 470 kts | 31° |
| 2026-05-06 19:14 | 57.58602 | 1.72272 | 37100 ft | 470 kts | 31° |
| 2026-05-06 19:15 | 57.63916 | 1.79389 | 37096 ft | 470 kts | 31° |
| 2026-05-06 19:15 | 57.69224 | 1.86538 | 37110 ft | 471 kts | 31° |
| 2026-05-06 19:16 | 57.74546 | 1.93713 | 37098 ft | 472 kts | 31° |
| 2026-05-06 19:16 | 57.79869 | 2.00909 | 37096 ft | 472 kts | 31° |
| 2026-05-06 19:17 | 57.85185 | 2.08143 | 37093 ft | 472 kts | 31° |
| 2026-05-06 19:17 | 57.90497 | 2.15408 | 37093 ft | 472 kts | 31° |
| 2026-05-06 19:18 | 57.95783 | 2.22642 | 37107 ft | 473 kts | 31° |
| 2026-05-06 19:18 | 58.01101 | 2.29943 | 37091 ft | 474 kts | 31° |
| 2026-05-06 19:19 | 58.06425 | 2.37302 | 37086 ft | 474 kts | 32° |
| 2026-05-06 19:19 | 58.11742 | 2.44672 | 37083 ft | 474 kts | 32° |
| 2026-05-06 19:20 | 58.17059 | 2.52068 | 37089 ft | 474 kts | 32° |
| 2026-05-06 19:20 | 58.22381 | 2.59493 | 37101 ft | 475 kts | 32° |
| 2026-05-06 19:21 | 58.27701 | 2.66943 | 37101 ft | 475 kts | 32° |
| 2026-05-06 19:21 | 58.33021 | 2.74424 | 37095 ft | 476 kts | 32° |
| 2026-05-06 19:22 | 58.38319 | 2.81998 | 37089 ft | 478 kts | 36° |
| 2026-05-06 19:22 | 58.43001 | 2.91100 | 37089 ft | 482 kts | 43° |
| 2026-05-06 19:23 | 58.47830 | 2.99871 | 37119 ft | 478 kts | 36° |
| 2026-05-06 19:23 | 58.52918 | 3.08062 | 37105 ft | 478 kts | 36° |
| 2026-05-06 19:24 | 58.58005 | 3.16290 | 37090 ft | 478 kts | 36° |
| 2026-05-06 19:24 | 58.63089 | 3.24536 | 37090 ft | 479 kts | 36° |
| 2026-05-06 19:25 | 58.68181 | 3.32823 | 37031 ft | 477 kts | 36° |
| 2026-05-06 19:25 | 58.70696 | 3.36928 | 36520 ft | 476 kts | 36° |
| 2026-05-06 19:25 | 58.73213 | 3.41054 | 36083 ft | 476 kts | 36° |
| 2026-05-06 19:25 | 58.75738 | 3.45206 | 35651 ft | 478 kts | 36° |
| 2026-05-06 19:26 | 58.78267 | 3.49372 | 35223 ft | 479 kts | 35° |
| 2026-05-06 19:26 | 58.80800 | 3.53545 | 34795 ft | 479 kts | 35° |
| 2026-05-06 19:26 | 58.83337 | 3.57728 | 34376 ft | 480 kts | 35° |
| 2026-05-06 19:26 | 58.85879 | 3.61928 | 33940 ft | 481 kts | 34° |
| 2026-05-06 19:27 | 58.88412 | 3.66127 | 33427 ft | 478 kts | 35° |
| 2026-05-06 19:27 | 58.90922 | 3.70298 | 32923 ft | 474 kts | 35° |
| 2026-05-06 19:27 | 58.93410 | 3.74444 | 32443 ft | 470 kts | 35° |
| 2026-05-06 19:27 | 58.95871 | 3.78552 | 31970 ft | 466 kts | 35° |
| 2026-05-06 19:28 | 58.98324 | 3.82649 | 31545 ft | 462 kts | 35° |
| 2026-05-06 19:28 | 59.00751 | 3.86703 | 31081 ft | 461 kts | 35° |
| 2026-05-06 19:28 | 59.03176 | 3.90756 | 30599 ft | 458 kts | 35° |
| 2026-05-06 19:28 | 59.05579 | 3.94783 | 30125 ft | 455 kts | 35° |
| 2026-05-06 19:29 | 59.07963 | 3.98789 | 29569 ft | 452 kts | 35° |
| 2026-05-06 19:29 | 59.10326 | 4.02776 | 29014 ft | 448 kts | 35° |
| 2026-05-06 19:29 | 59.12668 | 4.06739 | 28476 ft | 444 kts | 35° |
| 2026-05-06 19:29 | 59.14990 | 4.10682 | 27946 ft | 441 kts | 35° |
| 2026-05-06 19:30 | 59.17262 | 4.14547 | 27446 ft | 438 kts | 35° |
| 2026-05-06 19:30 | 59.19548 | 4.18434 | 26924 ft | 434 kts | 35° |
| 2026-05-06 19:30 | 59.21842 | 4.22338 | 26420 ft | 430 kts | 35° |
| 2026-05-06 19:30 | 59.24059 | 4.26116 | 25942 ft | 427 kts | 35° |
| 2026-05-06 19:31 | 59.26285 | 4.29921 | 25492 ft | 424 kts | 34° |
| 2026-05-06 19:31 | 59.28495 | 4.33704 | 25009 ft | 421 kts | 34° |
| 2026-05-06 19:31 | 59.32893 | 4.41246 | 24081 ft | 414 kts | 34° |
| 2026-05-06 19:32 | 59.35025 | 4.44909 | 23624 ft | 411 kts | 34° |
| 2026-05-06 19:32 | 59.37166 | 4.48589 | 23109 ft | 408 kts | 34° |
| 2026-05-06 19:32 | 59.39290 | 4.52253 | 22598 ft | 405 kts | 34° |
| 2026-05-06 19:32 | 59.41393 | 4.55894 | 22102 ft | 402 kts | 35° |
| 2026-05-06 19:33 | 59.43481 | 4.59513 | 21617 ft | 399 kts | 35° |
| 2026-05-06 19:33 | 59.45552 | 4.63110 | 21123 ft | 396 kts | 35° |
| 2026-05-06 19:33 | 59.47606 | 4.66678 | 20689 ft | 393 kts | 35° |
| 2026-05-06 19:33 | 59.49644 | 4.70232 | 20251 ft | 390 kts | 35° |
| 2026-05-06 19:34 | 59.51666 | 4.73761 | 19865 ft | 387 kts | 35° |
| 2026-05-06 19:34 | 59.53677 | 4.77271 | 19435 ft | 385 kts | 35° |
| 2026-05-06 19:34 | 59.55669 | 4.80758 | 19005 ft | 382 kts | 35° |
| 2026-05-06 19:34 | 59.57648 | 4.84235 | 18594 ft | 379 kts | 35° |
| 2026-05-06 19:35 | 59.59649 | 4.87556 | 18171 ft | 371 kts | 27° |
| 2026-05-06 19:35 | 59.61838 | 4.90029 | 17931 ft | 357 kts | 16° |
| 2026-05-06 19:35 | 59.64147 | 4.91609 | 17522 ft | 346 kts | 5° |
| 2026-05-06 19:35 | 59.66482 | 4.92280 | 17048 ft | 335 kts | 354° |
| 2026-05-06 19:36 | 59.68775 | 4.92120 | 16579 ft | 326 kts | 347° |
| 2026-05-06 19:36 | 59.71029 | 4.91718 | 16115 ft | 325 kts | 347° |
| 2026-05-06 19:36 | 59.73281 | 4.91335 | 15672 ft | 324 kts | 348° |
| 2026-05-06 19:36 | 59.75519 | 4.90969 | 15241 ft | 322 kts | 348° |
| 2026-05-06 19:37 | 59.77749 | 4.90607 | 14816 ft | 320 kts | 348° |
| 2026-05-06 19:37 | 59.79955 | 4.90150 | 14430 ft | 317 kts | 346° |
| 2026-05-06 19:37 | 59.82122 | 4.89565 | 14103 ft | 312 kts | 345° |
| 2026-05-06 19:37 | 59.83535 | 4.89145 | 13929 ft | 310 kts | 345° |
| 2026-05-06 19:38 | 59.86386 | 4.88271 | 13563 ft | 309 kts | 345° |
| 2026-05-06 19:38 | 59.88509 | 4.87628 | 13288 ft | 308 kts | 345° |
| 2026-05-06 19:38 | 59.90629 | 4.87002 | 13007 ft | 307 kts | 346° |
| 2026-05-06 19:38 | 59.92712 | 4.86400 | 12734 ft | 306 kts | 346° |
| 2026-05-06 19:39 | 59.94819 | 4.85796 | 12460 ft | 305 kts | 346° |
| 2026-05-06 19:39 | 59.96920 | 4.85194 | 12190 ft | 304 kts | 347° |
| 2026-05-06 19:39 | 59.99013 | 4.84594 | 11922 ft | 303 kts | 347° |
| 2026-05-06 19:39 | 60.01073 | 4.84009 | 11652 ft | 295 kts | 347° |
| 2026-05-06 19:40 | 60.03084 | 4.83437 | 11384 ft | 289 kts | 347° |
| 2026-05-06 19:40 | 60.05050 | 4.82875 | 11122 ft | 283 kts | 347° |
| 2026-05-06 19:40 | 60.06971 | 4.82323 | 10848 ft | 272 kts | 348° |
| 2026-05-06 19:40 | 60.08819 | 4.81791 | 10615 ft | 267 kts | 348° |
| 2026-05-06 19:41 | 60.10652 | 4.81260 | 10355 ft | 265 kts | 348° |
| 2026-05-06 19:41 | 60.12477 | 4.80728 | 10097 ft | 264 kts | 348° |
| 2026-05-06 19:41 | 60.14291 | 4.80196 | 9896 ft | 263 kts | 348° |
| 2026-05-06 19:41 | 60.16103 | 4.79666 | 9757 ft | 263 kts | 348° |
| 2026-05-06 19:42 | 60.17916 | 4.79140 | 9620 ft | 263 kts | 348° |
| 2026-05-06 19:42 | 60.19726 | 4.78617 | 9481 ft | 263 kts | 348° |
| 2026-05-06 19:42 | 60.21532 | 4.78091 | 9335 ft | 262 kts | 348° |
| 2026-05-06 19:42 | 60.23333 | 4.77566 | 9204 ft | 262 kts | 348° |
| 2026-05-06 19:43 | 60.25134 | 4.77040 | 9062 ft | 261 kts | 348° |
| 2026-05-06 19:43 | 60.26931 | 4.76519 | 8963 ft | 260 kts | 349° |
| 2026-05-06 19:43 | 60.28725 | 4.75999 | 9004 ft | 261 kts | 348° |
| 2026-05-06 19:43 | 60.30522 | 4.75475 | 9011 ft | 261 kts | 348° |
| 2026-05-06 19:44 | 60.32319 | 4.74947 | 9007 ft | 261 kts | 348° |
| 2026-05-06 19:44 | 60.34115 | 4.74419 | 9008 ft | 261 kts | 348° |
| 2026-05-06 19:44 | 60.35912 | 4.73888 | 9008 ft | 261 kts | 348° |
| 2026-05-06 19:44 | 60.37700 | 4.73364 | 9003 ft | 255 kts | 348° |
| 2026-05-06 19:45 | 60.39396 | 4.72876 | 8870 ft | 238 kts | 348° |
| 2026-05-06 19:45 | 60.40978 | 4.72197 | 8584 ft | 229 kts | 337° |
| 2026-05-06 19:45 | 60.42446 | 4.71118 | 8260 ft | 227 kts | 337° |
| 2026-05-06 19:45 | 60.43946 | 4.70016 | 7915 ft | 226 kts | 337° |
| 2026-05-06 19:46 | 60.45436 | 4.68984 | 7593 ft | 227 kts | 343° |
| 2026-05-06 19:46 | 60.46981 | 4.68611 | 7273 ft | 229 kts | 358° |
| 2026-05-06 19:46 | 60.48568 | 4.68646 | 7039 ft | 226 kts | 357° |
| 2026-05-06 19:46 | 60.50149 | 4.68665 | 7003 ft | 229 kts | 357° |
| 2026-05-06 19:47 | 60.51742 | 4.68902 | 7008 ft | 231 kts | 9° |
| 2026-05-06 19:47 | 60.53281 | 4.69892 | 7009 ft | 233 kts | 18° |
| 2026-05-06 19:47 | 60.54808 | 4.71046 | 7009 ft | 234 kts | 18° |
| 2026-05-06 19:47 | 60.56330 | 4.72207 | 7002 ft | 234 kts | 21° |
| 2026-05-06 19:48 | 60.57737 | 4.73894 | 7001 ft | 237 kts | 37° |
| 2026-05-06 19:48 | 60.58994 | 4.76060 | 7004 ft | 236 kts | 38° |
| 2026-05-06 19:48 | 60.60244 | 4.78219 | 7002 ft | 236 kts | 38° |
| 2026-05-06 19:48 | 60.61415 | 4.80561 | 7001 ft | 237 kts | 51° |
| 2026-05-06 19:49 | 60.62289 | 4.83408 | 6891 ft | 238 kts | 61° |
| 2026-05-06 19:49 | 60.63037 | 4.86408 | 6576 ft | 237 kts | 62° |
| 2026-05-06 19:49 | 60.63764 | 4.89415 | 6272 ft | 236 kts | 63° |
| 2026-05-06 19:49 | 60.64481 | 4.92399 | 6040 ft | 233 kts | 63° |
| 2026-05-06 19:50 | 60.65184 | 4.95330 | 5996 ft | 223 kts | 63° |
| 2026-05-06 19:50 | 60.65834 | 4.98207 | 6035 ft | 237 kts | 71° |
| 2026-05-06 19:50 | 60.65983 | 5.01700 | 6017 ft | 257 kts | 100° |
| 2026-05-06 19:50 | 60.65273 | 5.05017 | 5981 ft | 256 kts | 130° |
| 2026-05-06 19:51 | 60.63919 | 5.07257 | 5585 ft | 251 kts | 154° |
| 2026-05-06 19:51 | 60.62353 | 5.08818 | 5115 ft | 250 kts | 157° |
| 2026-05-06 19:51 | 60.60787 | 5.10273 | 4457 ft | 246 kts | 158° |
| 2026-05-06 19:51 | 60.59253 | 5.11675 | 4020 ft | 232 kts | 158° |
| 2026-05-06 19:52 | 60.57873 | 5.12945 | 3998 ft | 205 kts | 155° |
| 2026-05-06 19:52 | 60.56900 | 5.14710 | 3958 ft | 181 kts | 116° |
| 2026-05-06 19:52 | 60.56596 | 5.17021 | 3976 ft | 161 kts | 97° |
| 2026-05-06 19:52 | 60.56455 | 5.19246 | 3647 ft | 162 kts | 110° |
| 2026-05-06 19:53 | 60.55802 | 5.21219 | 3166 ft | 184 kts | 136° |
| 2026-05-06 19:53 | 60.54650 | 5.22950 | 3112 ft | 208 kts | 154° |
| 2026-05-06 19:53 | 60.53318 | 5.23457 | 3103 ft | 187 kts | 188° |
| 2026-05-06 19:53 | 60.52052 | 5.23184 | 3096 ft | 181 kts | 192° |
| 2026-05-06 19:54 | 60.50838 | 5.22614 | 2995 ft | 178 kts | 196° |
| 2026-05-06 19:54 | 60.49648 | 5.21968 | 2875 ft | 174 kts | 197° |
| 2026-05-06 19:54 | 60.48513 | 5.21342 | 2757 ft | 166 kts | 197° |
| 2026-05-06 19:54 | 60.47413 | 5.20716 | 2616 ft | 163 kts | 201° |
| 2026-05-06 19:55 | 60.46375 | 5.19818 | 2483 ft | 162 kts | 207° |
| 2026-05-06 19:55 | 60.45366 | 5.18823 | 2345 ft | 161 kts | 207° |
| 2026-05-06 19:55 | 60.44366 | 5.17812 | 2247 ft | 161 kts | 208° |
| 2026-05-06 19:55 | 60.43342 | 5.16979 | 2245 ft | 159 kts | 190° |
| 2026-05-06 19:56 | 60.42301 | 5.17207 | 2213 ft | 150 kts | 168° |
| 2026-05-06 19:56 | 60.41274 | 5.17662 | 2079 ft | 150 kts | 169° |
| 2026-05-06 19:56 | 60.40256 | 5.18045 | 1947 ft | 148 kts | 173° |
| 2026-05-06 19:56 | 60.39241 | 5.18379 | 1823 ft | 146 kts | 172° |
| 2026-05-06 19:57 | 60.38273 | 5.18727 | 1703 ft | 138 kts | 170° |
| 2026-05-06 19:57 | 60.37329 | 5.19118 | 1452 ft | 138 kts | 170° |
| 2026-05-06 19:57 | 60.36374 | 5.19449 | 1224 ft | 140 kts | 172° |
| 2026-05-06 19:57 | 60.35417 | 5.19729 | 1075 ft | 138 kts | 172° |
| 2026-05-06 19:58 | 60.34784 | 5.19942 | 933 ft | 143 kts | 169° |
| 2026-05-06 19:58 | 60.33801 | 5.20288 | 836 ft | 143 kts | 170° |
| 2026-05-06 19:58 | 60.32814 | 5.20627 | 664 ft | 141 kts | 172° |
| 2026-05-06 19:58 | 60.31869 | 5.20929 | 454 ft | 137 kts | 171° |
| 2026-05-06 19:59 | 60.30905 | 5.21279 | 306 ft | 140 kts | 172° |
| 2026-05-06 19:59 | 60.29941 | 5.21611 | 167 ft | 138 kts | 171° |
| 2026-05-06 19:59 | 60.29221 | 5.21853 | 159 ft | 82 kts | 170° |
| 2026-05-06 19:59 | 60.28942 | 5.21955 | 162 ft | 17 kts | 157° |
| 2026-05-06 20:00 | 60.28916 | 5.22151 | 159 ft | 14 kts | 81° |
| 2026-05-06 20:00 | 60.28917 | 5.22165 | 159 ft | 0 kts | 80° |
| 2026-05-06 20:00 | 60.28917 | 5.22166 | 159 ft | 1 kts | 80° |
| 2026-05-06 20:00 | 60.28921 | 5.22209 | 160 ft | 0 kts | 79° |
| 2026-05-06 20:01 | 60.28922 | 5.22214 | 160 ft | 3 kts | 79° |
| 2026-05-06 20:01 | 60.28931 | 5.22334 | 171 ft | 8 kts | 88° |
| 2026-05-06 20:01 | 60.28913 | 5.22393 | 166 ft | 2 kts | 144° |
| 2026-05-06 20:02 | 60.28899 | 5.22403 | 167 ft | 6 kts | 165° |
| 2026-05-06 20:02 | 60.28888 | 5.22441 | 168 ft | 1 kts | 96° |
| 2026-05-06 20:02 | 60.28888 | 5.22475 | 170 ft | 0 kts | 83° |
| 2026-05-06 20:02 | 60.28891 | 5.22516 | 172 ft | 4 kts | 83° |
| 2026-05-06 20:03 | 60.28891 | 5.22524 | 173 ft | 2 kts | 83° |
| 2026-05-06 20:03 | 60.28893 | 5.22549 | 173 ft | 2 kts | 83° |
| 2026-05-06 20:05 | 60.28892 | 5.22544 | 173 ft | 0 kts | 83° |